createdAt,value
2018-05-25T00:05:01.084Z,26.30
2018-05-25T00:10:03.115Z,28.97
2018-05-25T00:15:04.921Z,27.30
2018-05-25T00:20:10.187Z,29.07
2018-05-25T00:25:12.857Z,28.00
2018-05-25T00:30:15.501Z,29.70
2018-05-25T00:35:17.077Z,31.20
2018-05-25T00:40:18.751Z,30.10
2018-05-25T00:45:20.298Z,30.93
2018-05-25T00:50:22.699Z,27.33
2018-05-25T00:55:38.773Z,28.77
2018-05-25T01:00:40.287Z,29.20
2018-05-25T01:05:49.799Z,27.53
2018-05-25T01:10:51.575Z,27.37
2018-05-25T01:15:54.171Z,30.40
2018-05-25T01:20:56.055Z,29.93
2018-05-25T01:25:57.816Z,30.27
2018-05-25T01:30:59.387Z,30.30
2018-05-25T01:36:00.951Z,30.73
2018-05-25T01:41:03.547Z,30.53
2018-05-25T01:46:05.485Z,32.23
2018-05-25T01:51:07.028Z,30.80
2018-05-25T01:56:08.990Z,33.33
2018-05-25T02:01:11.104Z,32.30
2018-05-25T02:06:13.088Z,37.10
2018-05-25T02:11:14.682Z,35.50
2018-05-25T02:16:16.179Z,34.23
2018-05-25T02:21:17.827Z,34.27
2018-05-25T02:26:19.494Z,37.23
2018-05-25T02:31:21.899Z,36.67
2018-05-25T02:36:23.576Z,36.00
2018-05-25T02:41:25.469Z,36.53
2018-05-25T02:46:28.035Z,37.97
2018-05-25T02:51:29.857Z,38.57
2018-05-25T02:56:38.243Z,37.07
2018-05-25T03:01:40.193Z,35.90
2018-05-25T03:06:42.583Z,34.47
2018-05-25T03:11:45.083Z,37.63
2018-05-25T03:16:46.924Z,35.90
2018-05-25T03:21:49.252Z,37.70
2018-05-25T03:26:51.012Z,38.00
2018-05-25T03:31:52.809Z,39.37
2018-05-25T03:36:54.567Z,40.60
2018-05-25T03:41:56.087Z,40.00
2018-05-25T03:46:57.770Z,40.07
2018-05-25T03:51:59.291Z,40.27
2018-05-25T03:57:00.819Z,41.93
2018-05-25T04:02:03.331Z,42.43
2018-05-25T04:07:04.863Z,42.63
2018-05-25T04:12:06.411Z,42.63
2018-05-25T04:17:08.097Z,42.27
2018-05-25T04:22:09.631Z,39.77
2018-05-25T04:27:11.393Z,39.40
2018-05-25T04:32:13.140Z,38.13
2018-05-25T04:37:15.656Z,38.50
2018-05-25T04:42:17.235Z,40.67
2018-05-25T04:47:19.038Z,40.50
2018-05-25T04:52:20.643Z,36.70
2018-05-25T04:57:22.241Z,37.33
2018-05-25T05:02:24.011Z,36.17
2018-05-25T05:07:25.552Z,33.93
2018-05-25T05:12:27.864Z,35.47
2018-05-25T05:17:29.615Z,35.20
2018-05-25T05:22:32.008Z,33.90
2018-05-25T05:27:36.622Z,34.37
2018-05-25T05:32:38.519Z,34.13
2018-05-25T05:37:41.026Z,35.60
2018-05-25T05:42:42.802Z,35.33
2018-05-25T05:47:44.348Z,33.37
2018-05-25T05:52:46.646Z,34.10
2018-05-25T05:57:48.304Z,33.70
2018-05-25T06:02:50.798Z,30.57
2018-05-25T06:07:53.120Z,33.63
2018-05-25T06:12:54.816Z,31.70
2018-05-25T06:17:56.300Z,34.53
2018-05-25T06:22:57.788Z,34.90
2018-05-25T06:28:01.456Z,32.60
2018-05-25T06:33:03.084Z,34.90
2018-05-25T06:38:04.617Z,35.60
2018-05-25T06:43:06.272Z,34.63
2018-05-25T06:48:08.089Z,36.53
2018-05-25T06:53:17.235Z,38.20
2018-05-25T06:58:18.879Z,35.47
2018-05-25T07:03:20.703Z,34.97
2018-05-25T07:08:22.229Z,35.90
2018-05-25T07:13:30.723Z,35.23
2018-05-25T07:18:33.682Z,35.73
2018-05-25T07:23:36.424Z,35.13
2018-05-25T07:28:38.830Z,36.23
2018-05-25T07:33:42.578Z,35.70
2018-05-25T07:38:47.195Z,36.07
2018-05-25T07:43:50.593Z,33.37
2018-05-25T07:48:53.765Z,34.83
2018-05-25T07:53:58.199Z,35.33
2018-05-25T07:59:02.166Z,31.20
2018-05-25T08:04:06.305Z,31.37
2018-05-25T08:09:09.825Z,30.93
2018-05-25T08:14:13.388Z,32.43
2018-05-25T08:19:17.698Z,32.87
2018-05-25T08:24:22.639Z,33.43
2018-05-25T08:29:26.828Z,35.07
2018-05-25T08:34:45.047Z,36.40
2018-05-25T08:39:49.210Z,34.30
2018-05-25T08:44:53.332Z,31.67
2018-05-25T08:49:57.410Z,36.20
2018-05-25T08:55:01.150Z,40.63
2018-05-25T09:00:06.894Z,36.37
2018-05-25T09:05:12.345Z,38.07
2018-05-25T09:10:19.700Z,37.10
2018-05-25T09:15:24.602Z,37.63
2018-05-25T09:20:30.230Z,40.17
2018-05-25T09:25:38.415Z,41.00
2018-05-25T09:30:44.955Z,38.33
2018-05-25T09:35:49.935Z,41.07
2018-05-25T09:40:57.098Z,37.67
2018-05-25T09:46:03.316Z,36.30
2018-05-25T09:51:09.431Z,35.30
2018-05-25T09:56:14.989Z,34.30
2018-05-25T10:01:22.616Z,36.60
2018-05-25T10:06:32.475Z,39.70
2018-05-25T10:11:36.524Z,33.50
2018-05-25T10:16:41.975Z,36.37
2018-05-25T10:21:48.095Z,36.67
2018-05-25T10:26:54.093Z,35.57
2018-05-25T10:31:59.947Z,34.80
2018-05-25T10:37:09.008Z,33.57
2018-05-25T10:42:18.727Z,30.60
2018-05-25T10:47:27.511Z,33.67
2018-05-25T10:52:33.483Z,31.47
2018-05-25T10:57:41.801Z,31.27
2018-05-25T11:02:50.592Z,30.57
2018-05-25T11:07:56.625Z,31.23
2018-05-25T11:13:03.368Z,27.63
2018-05-25T11:18:09.174Z,25.00
2018-05-25T11:23:12.787Z,27.20
2018-05-25T11:28:15.515Z,29.80
2018-05-25T11:33:21.696Z,27.57
2018-05-25T11:38:27.345Z,24.37
2018-05-25T11:43:32.717Z,25.63
2018-05-25T11:48:43.356Z,24.30
2018-05-25T11:53:50.333Z,22.30
2018-05-25T11:58:55.636Z,23.97
2018-05-25T12:04:02.522Z,22.37
2018-05-25T12:09:07.321Z,22.10
2018-05-25T12:14:11.397Z,21.17
2018-05-25T12:19:19.707Z,23.30
2018-05-25T12:24:25.914Z,21.93
2018-05-25T12:29:34.082Z,17.40
2018-05-25T12:34:43.716Z,14.87
2018-05-25T12:39:50.247Z,12.17
2018-05-25T12:45:16.390Z,12.83
2018-05-25T12:50:21.369Z,12.17
2018-05-25T12:55:30.164Z,12.00
2018-05-25T13:00:35.952Z,10.47
2018-05-25T13:05:42.666Z,9.00
2018-05-25T13:15:58.895Z,8.30
2018-05-25T13:21:08.591Z,9.27
2018-05-25T13:26:14.275Z,8.30
2018-05-25T13:31:21.071Z,9.60
2018-05-25T13:36:29.091Z,9.23
2018-05-25T13:41:34.945Z,8.83
2018-05-25T13:46:42.234Z,9.10
2018-05-25T13:51:49.478Z,9.03
2018-05-25T13:56:56.965Z,9.53
2018-05-25T14:01:58.881Z,10.20
2018-05-25T14:07:00.636Z,9.60
2018-05-25T14:12:02.400Z,9.60
2018-05-25T14:17:04.113Z,8.10
2018-05-25T14:22:05.838Z,9.13
2018-05-25T14:27:08.204Z,9.17
2018-05-25T14:32:09.741Z,10.00
2018-05-25T14:37:11.472Z,9.63
2018-05-25T14:42:13.765Z,8.53
2018-05-25T14:47:15.334Z,8.50
2018-05-25T14:52:17.123Z,8.80
2018-05-25T14:57:18.711Z,9.70
2018-05-25T15:02:20.469Z,9.00
2018-05-25T15:07:22.049Z,7.93
2018-05-25T15:12:23.612Z,9.70
2018-05-25T15:17:25.383Z,9.07
2018-05-25T15:22:27.242Z,11.47
2018-05-25T15:27:28.847Z,10.60
2018-05-25T15:32:30.678Z,10.63
2018-05-25T15:37:32.280Z,11.20
2018-05-25T15:42:33.873Z,11.27
2018-05-25T15:47:35.566Z,10.93
2018-05-25T15:52:37.277Z,11.23
2018-05-25T15:57:39.018Z,11.40
2018-05-25T16:02:41.340Z,11.53
2018-05-25T16:07:42.992Z,10.27
2018-05-25T16:12:45.314Z,10.40
2018-05-25T16:17:46.951Z,10.70
2018-05-25T16:22:48.731Z,11.33
2018-05-25T16:27:50.265Z,11.73
2018-05-25T16:32:51.854Z,11.50
2018-05-25T16:37:54.268Z,11.60
2018-05-25T16:42:55.972Z,11.83
2018-05-25T16:47:57.618Z,10.70
2018-05-25T16:52:59.748Z,11.07
2018-05-25T16:58:03.622Z,11.80
2018-05-25T17:03:16.694Z,10.93
2018-05-25T17:08:18.452Z,9.87
2018-05-25T17:13:23.393Z,10.00
2018-05-25T17:18:27.690Z,10.73
2018-05-25T17:23:31.453Z,8.83
2018-05-25T17:28:33.283Z,8.90
2018-05-25T17:33:35.840Z,8.83
2018-05-25T17:38:38.396Z,9.30
2018-05-25T17:43:43.433Z,8.33
2018-05-25T17:48:48.424Z,8.20
2018-05-25T17:53:52.808Z,8.70
2018-05-25T17:58:56.277Z,8.30
2018-05-25T18:03:59.644Z,8.30
2018-05-25T18:09:01.788Z,7.77
2018-05-25T18:14:05.962Z,8.03
2018-05-25T18:19:10.515Z,8.50
2018-05-25T18:24:15.704Z,10.63
2018-05-25T18:29:17.777Z,8.33
2018-05-25T18:34:21.349Z,8.13
2018-05-25T18:39:23.383Z,9.07
2018-05-25T18:44:25.384Z,9.60
2018-05-25T18:49:28.354Z,9.10
2018-05-25T18:54:33.361Z,9.00
2018-05-25T18:59:35.356Z,8.63
2018-05-25T19:04:37.231Z,10.10
2018-05-25T19:09:39.338Z,138.23
2018-05-25T19:14:44.275Z,50.30
2018-05-25T19:19:46.531Z,55.23
2018-05-25T19:24:49.165Z,31.27
2018-05-25T19:29:55.332Z,16.13
2018-05-25T19:35:01.667Z,12.70
2018-05-25T19:40:07.285Z,9.87
2018-05-25T19:45:13.973Z,12.03
2018-05-25T19:50:20.135Z,11.53
2018-05-25T19:55:25.760Z,10.83
2018-05-25T20:00:30.530Z,10.33
2018-05-25T20:05:36.457Z,11.20
2018-05-25T20:10:38.446Z,12.43
2018-05-25T20:15:41.164Z,11.67
2018-05-25T20:20:42.744Z,10.50
2018-05-25T20:25:44.398Z,10.83
2018-05-25T20:30:46.028Z,11.73
2018-05-25T20:35:47.595Z,11.30
2018-05-25T20:40:49.923Z,11.70
2018-05-25T20:45:51.491Z,11.53
2018-05-25T20:50:53.082Z,11.37
2018-05-25T20:55:54.712Z,12.77
2018-05-25T21:00:56.260Z,12.67
2018-05-25T21:05:58.661Z,13.33
2018-05-25T21:11:00.775Z,11.97
2018-05-25T21:16:02.501Z,11.40
2018-05-25T21:21:04.418Z,12.37
2018-05-25T21:26:06.014Z,11.73
2018-05-25T21:31:08.145Z,11.97
2018-05-25T21:36:09.696Z,13.27
2018-05-25T21:41:12.331Z,11.40
2018-05-25T21:46:13.928Z,10.50
2018-05-25T21:51:16.146Z,11.90
2018-05-25T21:56:20.603Z,11.03
2018-05-25T22:01:22.368Z,10.77
2018-05-25T22:06:24.208Z,10.20
2018-05-25T22:11:25.763Z,11.13
2018-05-25T22:16:27.810Z,11.63
2018-05-25T22:21:29.571Z,11.53
2018-05-25T22:26:33.423Z,11.47
2018-05-25T22:31:35.039Z,11.00
2018-05-25T22:36:37.503Z,9.63
2018-05-25T22:41:39.091Z,10.03
2018-05-25T22:47:03.242Z,9.70
2018-05-25T22:52:21.751Z,11.07
2018-05-25T22:57:24.448Z,9.80
2018-05-25T23:02:27.605Z,9.70
2018-05-25T23:07:29.916Z,9.63
2018-05-25T23:12:31.755Z,10.00
2018-05-25T23:17:33.604Z,10.13
2018-05-25T23:22:35.887Z,11.10
2018-05-25T23:27:38.592Z,10.10
2018-05-25T23:32:41.661Z,9.90
2018-05-25T23:37:46.975Z,10.70
2018-05-25T23:42:52.319Z,9.67
2018-05-25T23:47:55.236Z,10.60
2018-05-25T23:52:57.049Z,10.77
2018-05-25T23:57:59.502Z,10.13
